x

Central Caribbean - 210 Nm Sse Of Kingston, Jamaica (42058) Wave Buoy

8:50pm - Wed 20th Aug 2014 All times are EST. -5 hours from GMT.

  • Sig Wave height 5.9ft
  • Swell Direction
  • Peak Period 7s
  • Average Period 5s
  • Wind
    22mph, 27mph gusts
  • Sea Temp 84°f
  • Air Temp 84°f
  • Sea Pressure 1013.9mb
  • Central Caribbean - 210 Nm Sse Of Kingston, Jamaica
  • Central Caribbean - 210 Nm Sse Of Kingston, Jamaica

More Historic Weather Station data

Upgrade to MSW Pro to gain access to the past 30 days of data for over 8000 Wavebouys and Weather Stations around the globe.

Join Pro

Comparision Forecast

View Surf forecast
   
Wed 08/20 8:50pm 6ft 7s 5s 22 27 mph 1013.9mb 84f 84f
7:50pm 5ft 7s 5s 20 25 mph 1013.2mb 84f 84f
6:50pm 5ft 7s 5s 20 25 mph 1012.3mb 84f 84f
5:50pm 6ft 7s 5s 20 25 mph 1011.9mb 84f 84f
4:50pm 6ft 7s 5s 20 25 mph 1011.6mb 84f 84f
3:50pm 5.5ft 7s 5s 20 22 mph 1011.9mb 84f 84f
2:50pm 6ft 7s 5s 20 25 mph 1012.1mb 84f 84f
1:50pm 6ft 7s 5s 18 22 mph 1012.6mb 84f 84f
12:50pm 6ft 7s 5s 22 27 mph 1013mb 84f 84f
11:50am 5.5ft 7s 5s 22 27 mph 1013.7mb 84f 84f
10:50am 6ft 7s 5s 22 27 mph 1014.2mb 84f 84f
9:50am 6ft 7s 5s 20 25 mph 1014.3mb 84f 84f
8:50am 6ft 6s 5s 22 27 mph 1013.8mb 84f 84f
7:50am 6ft 7s 5s 22 27 mph 1013mb 84f 84f
6:50am 5.5ft 7s 5s 22 27 mph 1012.4mb 84f 83f
5:50am 6ft 7s 5s 22 25 mph 1012.2mb 84f 83f
4:50am 5.5ft 6s 5s 22 27 mph 1011.9mb 84f 83f
3:50am 6ft 7s 5s 20 25 mph 1011.4mb 84f 83f
2:50am 5ft 7s 5s 22 25 mph 1011.2mb 84f 83f
1:50am 5.5ft 7s 5s 20 25 mph 1011.3mb 84f 83f
12:50am 5.5ft 7s 5s 22 27 mph 1012mb 84f 83f
Tue 08/19 11:50pm 5ft 7s 5s 22 25 mph 1012.8mb 84f 83f
10:50pm 5.5ft 7s 5s 22 25 mph 1013.1mb 84f 84f
9:50pm 5.5ft 7s 5s 22 27 mph 1013mb 84f 84f
8:50pm 6ft 8s 5s 22 25 mph 1012.6mb 84f 83f
7:50pm 5.5ft 7s 5s 22 25 mph 1012.2mb 84f 84f
6:50pm 6ft 8s 5s 20 25 mph 1011.9mb 84f 84f
5:50pm 5.5ft 7s 5s 20 25 mph 1011.5mb 84f 84f
4:50pm 6ft 7s 5s 18 22 mph 1011.5mb 84f 84f
3:50pm 6.5ft 8s 5s 20 22 mph 1011.5mb 84f 84f
2:50pm 6ft 8s 5s 22 27 mph 1011.5mb 84f 84f
1:50pm 6ft 7s 5s 22 25 mph 1012mb 84f 84f
12:50pm 7ft 8s 6s 20 25 mph 1012.6mb 84f 84f
11:50am 7.5ft 8s 5s 22 27 mph 1013mb 84f 84f
10:50am 7ft 7s 5s 25 31 mph 1013.3mb 84f 84f
9:50am 7ft 7s 5s 25 29 mph 1013mb 83f 83f
8:50am 6.5ft 8s 5s 25 31 mph 1012.6mb 83f 83f
7:50am 6.5ft 7s 5s 25 31 mph 1012.6mb 83f 83f
6:50am 6ft 7s 5s 25 29 mph 1012mb 83f 83f
5:50am 7ft 7s 5s 25 29 mph 1011.4mb 83f 83f
4:50am 6.5ft 8s 5s 25 29 mph 1011.5mb 83f 83f
3:50am 7ft 8s 5s 25 29 mph 1010.9mb 84f 83f
2:50am 7ft 7s 5s 27 31 mph 1010.8mb 84f 83f
1:50am 7ft 7s 5s 27 34 mph 1010.7mb 84f 83f
12:50am 7ft 8s 5s 31 36 mph 1011mb 84f 83f
Mon 08/18 11:50pm 7ft 8s 5s 27 34 mph 1011.9mb 84f 83f
10:50pm 7ft 8s 6s 27 31 mph 1012.2mb 84f 83f
9:50pm 6.5ft 8s 5s 25 31 mph 1012.2mb 84f 83f
8:50pm 6.5ft 8s 5s 25 29 mph 1011.8mb 84f 83f
7:50pm 7ft 8s 6s 25 29 mph 1011.5mb 84f 84f
6:50pm 7ft 8s 5s 20 27 mph 1011mb 84f 84f
5:50pm 7ft 8s 6s 22 27 mph 1010.3mb 84f 84f
4:50pm 7ft 8s 5s 25 29 mph 1010mb 84f 84f
3:50pm 7ft 7s 6s 22 27 mph 1010.2mb 84f 84f
2:50pm 7ft 8s 5s 25 29 mph 1010.5mb 84f 84f
1:50pm 7ft 8s 6s 25 29 mph 1011mb 84f 84f
12:50pm 7ft 8s 5s 25 29 mph 1011.6mb 84f 84f
11:50am 7.5ft 8s 6s 22 29 mph 1012.1mb 84f 84f
10:50am 7.5ft 8s 6s 27 31 mph 1012.4mb 84f 84f
9:50am 7.5ft 8s 6s 25 29 mph 1013mb 84f 84f
8:50am 8.5ft 8s 6s 22 27 mph 1012.8mb 84f 84f
7:50am 7.5ft 8s 6s 27 31 mph 1012.6mb 84f 84f
6:50am 8ft 8s 6s 25 29 mph 1012.8mb 84f 84f
5:50am 8.5ft 8s 6s 22 29 mph 1012.7mb 84f 83f
4:50am 8ft 8s 6s 25 29 mph 1011.9mb 84f 83f
3:50am 8.5ft 8s 6s 27 31 mph 1011.5mb 84f 83f
2:50am 7.5ft 8s 6s 29 36 mph 1011mb 84f 83f
1:50am 8ft 7s 6s 27 34 mph 1011.7mb 84f 83f
12:50am 8ft 6s 5s 29 34 mph 1012.3mb 84f 84f
Sun 08/17 11:50pm 8ft 8s 6s 29 34 mph 1012.4mb 84f 84f
10:50pm 7ft 8s 5s 27 34 mph 1012.4mb 84f 84f
9:50pm 7ft 7s 5s 27 34 mph 1012.3mb 84f 84f
8:50pm 7ft 7s 5s 27 34 mph 1012mb 84f 84f
7:50pm 7ft 8s 5s 25 31 mph 1011.5mb 84f 84f
6:50pm 7ft 8s 5s 25 29 mph 1010.6mb 84f 84f
5:50pm 7ft 8s 5s 25 29 mph 1010.6mb 84f 84f
4:50pm 6.5ft 8s 5s 25 27 mph 1010.5mb 84f 84f
3:50pm 6.5ft 8s 5s 22 27 mph 1010.4mb 84f 84f
2:50pm 7ft 7s 5s 25 29 mph 1010.7mb 84f 84f
1:50pm 7ft 8s 5s 27 31 mph 1011.2mb 84f 84f
12:50pm 7ft 8s 5s 25 29 mph 1011.7mb 84f 84f
11:50am 7ft 7s 5s 25 29 mph 1012.3mb 84f 84f
10:50am 6ft 6s 5s 22 27 mph 1012.8mb 83f 84f
9:50am 6.5ft 7s 5s 22 27 mph 1012.8mb 83f 84f
8:50am 7ft 8s 5s 25 29 mph 1012.8mb 84f 84f
7:50am 7ft 8s 5s 25 31 mph 1012.6mb 84f 83f
6:50am 7ft 8s 5s 25 29 mph 1012.4mb 84f 83f
5:50am 7ft 8s 5s 25 29 mph 1011.7mb 84f 83f
4:50am 7ft 7s 5s 25 29 mph 1011.6mb 84f 83f
3:50am 7ft 8s 5s 25 27 mph 1011.7mb 84f 83f